sensor_id;sensor_type;location;lat;lon;timestamp;P1;durP1;ratioP1;P2;durP2;ratioP2
17595;SDS011;8916;47.086;15.920;2024-01-30T00:01:46;29.35;;;11.20;;
17595;SDS011;8916;47.086;15.920;2024-01-30T00:04:15;29.90;;;10.82;;
17595;SDS011;8916;47.086;15.920;2024-01-30T00:06:46;28.20;;;11.05;;
17595;SDS011;8916;47.086;15.920;2024-01-30T00:09:15;30.40;;;11.27;;
17595;SDS011;8916;47.086;15.920;2024-01-30T00:11:44;31.10;;;11.43;;
17595;SDS011;8916;47.086;15.920;2024-01-30T00:14:13;25.63;;;10.63;;
17595;SDS011;8916;47.086;15.920;2024-01-30T00:16:43;27.25;;;10.55;;
17595;SDS011;8916;47.086;15.920;2024-01-30T00:19:12;32.20;;;10.80;;
17595;SDS011;8916;47.086;15.920;2024-01-30T00:21:41;25.17;;;10.57;;
17595;SDS011;8916;47.086;15.920;2024-01-30T00:24:12;27.60;;;9.93;;
17595;SDS011;8916;47.086;15.920;2024-01-30T00:26:41;26.27;;;9.70;;
17595;SDS011;8916;47.086;15.920;2024-01-30T00:29:10;22.15;;;10.27;;
17595;SDS011;8916;47.086;15.920;2024-01-30T00:31:39;23.40;;;9.82;;
17595;SDS011;8916;47.086;15.920;2024-01-30T00:34:08;35.55;;;10.05;;
17595;SDS011;8916;47.086;15.920;2024-01-30T00:36:38;18.05;;;8.50;;
17595;SDS011;8916;47.086;15.920;2024-01-30T00:39:07;26.23;;;9.98;;
17595;SDS011;8916;47.086;15.920;2024-01-30T00:41:38;29.02;;;10.18;;
17595;SDS011;8916;47.086;15.920;2024-01-30T00:44:07;27.90;;;9.57;;
17595;SDS011;8916;47.086;15.920;2024-01-30T00:46:36;23.60;;;10.52;;
17595;SDS011;8916;47.086;15.920;2024-01-30T00:49:05;26.50;;;10.65;;
17595;SDS011;8916;47.086;15.920;2024-01-30T00:51:34;26.75;;;9.85;;
17595;SDS011;8916;47.086;15.920;2024-01-30T00:54:03;22.95;;;10.13;;
17595;SDS011;8916;47.086;15.920;2024-01-30T00:56:33;28.67;;;9.70;;
17595;SDS011;8916;47.086;15.920;2024-01-30T00:59:04;23.23;;;9.82;;
17595;SDS011;8916;47.086;15.920;2024-01-30T01:01:33;21.23;;;9.73;;
17595;SDS011;8916;47.086;15.920;2024-01-30T01:04:02;29.65;;;10.70;;
17595;SDS011;8916;47.086;15.920;2024-01-30T01:06:31;21.48;;;9.55;;
17595;SDS011;8916;47.086;15.920;2024-01-30T01:09:01;27.60;;;10.18;;
17595;SDS011;8916;47.086;15.920;2024-01-30T01:11:31;23.88;;;9.75;;
17595;SDS011;8916;47.086;15.920;2024-01-30T01:14:00;19.23;;;8.98;;
17595;SDS011;8916;47.086;15.920;2024-01-30T01:16:31;23.02;;;9.32;;
17595;SDS011;8916;47.086;15.920;2024-01-30T01:19:01;24.98;;;10.00;;
17595;SDS011;8916;47.086;15.920;2024-01-30T01:21:31;34.25;;;10.65;;
17595;SDS011;8916;47.086;15.920;2024-01-30T01:24:00;22.50;;;8.98;;
17595;SDS011;8916;47.086;15.920;2024-01-30T01:26:29;24.15;;;9.68;;
17595;SDS011;8916;47.086;15.920;2024-01-30T01:28:58;24.83;;;9.57;;
17595;SDS011;8916;47.086;15.920;2024-01-30T01:31:27;26.58;;;9.95;;
17595;SDS011;8916;47.086;15.920;2024-01-30T01:33:58;26.48;;;10.18;;
17595;SDS011;8916;47.086;15.920;2024-01-30T01:36:27;21.45;;;8.95;;
17595;SDS011;8916;47.086;15.920;2024-01-30T01:38:56;27.50;;;9.88;;
17595;SDS011;8916;47.086;15.920;2024-01-30T01:41:29;22.90;;;9.48;;
17595;SDS011;8916;47.086;15.920;2024-01-30T01:43:59;24.83;;;9.60;;
17595;SDS011;8916;47.086;15.920;2024-01-30T01:46:29;30.65;;;9.27;;
17595;SDS011;8916;47.086;15.920;2024-01-30T01:49:03;33.65;;;10.25;;
17595;SDS011;8916;47.086;15.920;2024-01-30T01:51:35;26.30;;;9.90;;
17595;SDS011;8916;47.086;15.920;2024-01-30T01:54:05;27.98;;;11.13;;
17595;SDS011;8916;47.086;15.920;2024-01-30T01:56:35;28.70;;;10.57;;
17595;SDS011;8916;47.086;15.920;2024-01-30T01:59:06;28.40;;;10.95;;
17595;SDS011;8916;47.086;15.920;2024-01-30T02:01:36;29.77;;;10.70;;
17595;SDS011;8916;47.086;15.920;2024-01-30T02:04:07;26.55;;;10.35;;
17595;SDS011;8916;47.086;15.920;2024-01-30T02:06:37;34.28;;;10.00;;
17595;SDS011;8916;47.086;15.920;2024-01-30T02:09:07;22.95;;;9.88;;
17595;SDS011;8916;47.086;15.920;2024-01-30T02:11:37;27.20;;;10.60;;
17595;SDS011;8916;47.086;15.920;2024-01-30T02:14:06;25.58;;;9.77;;
17595;SDS011;8916;47.086;15.920;2024-01-30T02:16:35;26.55;;;9.85;;
17595;SDS011;8916;47.086;15.920;2024-01-30T02:19:04;24.25;;;9.73;;
17595;SDS011;8916;47.086;15.920;2024-01-30T02:21:36;27.95;;;10.10;;
17595;SDS011;8916;47.086;15.920;2024-01-30T02:24:06;30.65;;;10.07;;
17595;SDS011;8916;47.086;15.920;2024-01-30T02:26:35;26.27;;;9.93;;
17595;SDS011;8916;47.086;15.920;2024-01-30T02:29:04;21.70;;;8.43;;
17595;SDS011;8916;47.086;15.920;2024-01-30T02:31:33;20.00;;;8.18;;
17595;SDS011;8916;47.086;15.920;2024-01-30T02:34:02;27.83;;;8.75;;
17595;SDS011;8916;47.086;15.920;2024-01-30T02:36:31;19.25;;;8.18;;
17595;SDS011;8916;47.086;15.920;2024-01-30T02:39:02;20.38;;;8.32;;
17595;SDS011;8916;47.086;15.920;2024-01-30T02:41:32;23.30;;;9.02;;
17595;SDS011;8916;47.086;15.920;2024-01-30T02:44:01;20.38;;;9.05;;
17595;SDS011;8916;47.086;15.920;2024-01-30T02:46:30;26.45;;;9.18;;
17595;SDS011;8916;47.086;15.920;2024-01-30T02:49:00;22.83;;;7.75;;
17595;SDS011;8916;47.086;15.920;2024-01-30T02:51:29;20.55;;;8.00;;
17595;SDS011;8916;47.086;15.920;2024-01-30T02:53:58;21.70;;;8.82;;
17595;SDS011;8916;47.086;15.920;2024-01-30T02:56:28;26.42;;;8.10;;
17595;SDS011;8916;47.086;15.920;2024-01-30T02:58:57;18.27;;;8.35;;
17595;SDS011;8916;47.086;15.920;2024-01-30T03:01:26;23.35;;;7.72;;
17595;SDS011;8916;47.086;15.920;2024-01-30T03:03:56;22.05;;;7.57;;
17595;SDS011;8916;47.086;15.920;2024-01-30T03:06:25;27.10;;;8.10;;
17595;SDS011;8916;47.086;15.920;2024-01-30T03:08:54;17.50;;;7.35;;
17595;SDS011;8916;47.086;15.920;2024-01-30T03:11:23;19.63;;;7.43;;
17595;SDS011;8916;47.086;15.920;2024-01-30T03:13:53;23.60;;;8.55;;
17595;SDS011;8916;47.086;15.920;2024-01-30T03:16:23;17.67;;;8.10;;
17595;SDS011;8916;47.086;15.920;2024-01-30T03:18:52;18.90;;;8.30;;
17595;SDS011;8916;47.086;15.920;2024-01-30T03:21:21;26.05;;;9.23;;
17595;SDS011;8916;47.086;15.920;2024-01-30T03:23:50;23.17;;;8.32;;
17595;SDS011;8916;47.086;15.920;2024-01-30T03:26:20;26.17;;;9.15;;
17595;SDS011;8916;47.086;15.920;2024-01-30T03:28:49;21.15;;;8.18;;
17595;SDS011;8916;47.086;15.920;2024-01-30T03:31:20;23.02;;;8.80;;
17595;SDS011;8916;47.086;15.920;2024-01-30T03:33:49;22.30;;;8.75;;
17595;SDS011;8916;47.086;15.920;2024-01-30T03:36:18;19.77;;;8.32;;
17595;SDS011;8916;47.086;15.920;2024-01-30T03:38:48;24.10;;;8.68;;
17595;SDS011;8916;47.086;15.920;2024-01-30T03:41:17;22.33;;;8.70;;
17595;SDS011;8916;47.086;15.920;2024-01-30T03:43:46;21.50;;;8.65;;
17595;SDS011;8916;47.086;15.920;2024-01-30T03:46:15;19.90;;;8.05;;
17595;SDS011;8916;47.086;15.920;2024-01-30T03:48:46;23.73;;;8.50;;
17595;SDS011;8916;47.086;15.920;2024-01-30T03:51:15;24.77;;;8.05;;
17595;SDS011;8916;47.086;15.920;2024-01-30T03:53:44;26.17;;;8.70;;
17595;SDS011;8916;47.086;15.920;2024-01-30T03:56:14;22.50;;;8.52;;
17595;SDS011;8916;47.086;15.920;2024-01-30T03:58:43;24.65;;;8.40;;
17595;SDS011;8916;47.086;15.920;2024-01-30T04:01:15;20.77;;;7.35;;
17595;SDS011;8916;47.086;15.920;2024-01-30T04:03:46;19.38;;;8.32;;
17595;SDS011;8916;47.086;15.920;2024-01-30T04:06:15;20.50;;;7.22;;
17595;SDS011;8916;47.086;15.920;2024-01-30T04:08:44;20.42;;;8.07;;
17595;SDS011;8916;47.086;15.920;2024-01-30T04:11:13;25.10;;;9.55;;
17595;SDS011;8916;47.086;15.920;2024-01-30T04:13:42;22.55;;;9.15;;
17595;SDS011;8916;47.086;15.920;2024-01-30T04:16:18;17.48;;;7.88;;
17595;SDS011;8916;47.086;15.920;2024-01-30T04:21:20;22.85;;;8.90;;
17595;SDS011;8916;47.086;15.920;2024-01-30T04:23:50;31.02;;;8.32;;
17595;SDS011;8916;47.086;15.920;2024-01-30T04:26:19;18.83;;;7.38;;
17595;SDS011;8916;47.086;15.920;2024-01-30T04:28:48;19.30;;;7.60;;
17595;SDS011;8916;47.086;15.920;2024-01-30T04:31:17;28.52;;;8.82;;
17595;SDS011;8916;47.086;15.920;2024-01-30T04:33:47;19.95;;;7.65;;
17595;SDS011;8916;47.086;15.920;2024-01-30T04:36:17;20.45;;;7.40;;
17595;SDS011;8916;47.086;15.920;2024-01-30T04:38:46;21.27;;;8.30;;
17595;SDS011;8916;47.086;15.920;2024-01-30T04:41:15;19.90;;;7.95;;
17595;SDS011;8916;47.086;15.920;2024-01-30T04:43:44;26.08;;;8.27;;
17595;SDS011;8916;47.086;15.920;2024-01-30T04:46:13;23.90;;;8.00;;
17595;SDS011;8916;47.086;15.920;2024-01-30T04:48:43;23.10;;;7.75;;
17595;SDS011;8916;47.086;15.920;2024-01-30T04:51:12;21.73;;;8.45;;
17595;SDS011;8916;47.086;15.920;2024-01-30T04:53:43;20.42;;;7.72;;
17595;SDS011;8916;47.086;15.920;2024-01-30T04:56:12;27.08;;;8.25;;
17595;SDS011;8916;47.086;15.920;2024-01-30T04:58:41;19.48;;;8.32;;
17595;SDS011;8916;47.086;15.920;2024-01-30T05:01:14;15.77;;;7.32;;
17595;SDS011;8916;47.086;15.920;2024-01-30T05:03:44;22.52;;;7.97;;
17595;SDS011;8916;47.086;15.920;2024-01-30T05:06:23;17.05;;;7.43;;
17595;SDS011;8916;47.086;15.920;2024-01-30T05:08:55;20.77;;;7.93;;
17595;SDS011;8916;47.086;15.920;2024-01-30T05:11:24;25.10;;;8.05;;
17595;SDS011;8916;47.086;15.920;2024-01-30T05:13:53;24.30;;;7.72;;
17595;SDS011;8916;47.086;15.920;2024-01-30T05:16:22;17.92;;;7.60;;
17595;SDS011;8916;47.086;15.920;2024-01-30T05:18:51;20.65;;;9.13;;
17595;SDS011;8916;47.086;15.920;2024-01-30T05:21:20;19.73;;;8.68;;
17595;SDS011;8916;47.086;15.920;2024-01-30T05:23:49;22.20;;;9.20;;
17595;SDS011;8916;47.086;15.920;2024-01-30T05:26:20;29.75;;;8.70;;
17595;SDS011;8916;47.086;15.920;2024-01-30T05:28:50;20.83;;;9.13;;
17595;SDS011;8916;47.086;15.920;2024-01-30T05:31:19;27.40;;;10.32;;
17595;SDS011;8916;47.086;15.920;2024-01-30T05:33:50;29.08;;;8.73;;
17595;SDS011;8916;47.086;15.920;2024-01-30T05:36:20;29.50;;;8.57;;
17595;SDS011;8916;47.086;15.920;2024-01-30T05:38:49;22.65;;;8.20;;
17595;SDS011;8916;47.086;15.920;2024-01-30T05:41:18;18.58;;;8.30;;
17595;SDS011;8916;47.086;15.920;2024-01-30T05:43:49;18.27;;;8.60;;
17595;SDS011;8916;47.086;15.920;2024-01-30T05:46:21;24.80;;;9.45;;
17595;SDS011;8916;47.086;15.920;2024-01-30T05:48:52;23.52;;;7.43;;
17595;SDS011;8916;47.086;15.920;2024-01-30T05:51:21;18.23;;;6.93;;
17595;SDS011;8916;47.086;15.920;2024-01-30T05:53:51;30.65;;;10.20;;
17595;SDS011;8916;47.086;15.920;2024-01-30T05:56:23;23.75;;;8.48;;
17595;SDS011;8916;47.086;15.920;2024-01-30T05:58:52;22.80;;;8.43;;
17595;SDS011;8916;47.086;15.920;2024-01-30T06:01:22;30.50;;;8.63;;
17595;SDS011;8916;47.086;15.920;2024-01-30T06:03:52;15.55;;;8.05;;
17595;SDS011;8916;47.086;15.920;2024-01-30T06:06:22;20.00;;;8.57;;
17595;SDS011;8916;47.086;15.920;2024-01-30T06:08:52;29.88;;;9.15;;
17595;SDS011;8916;47.086;15.920;2024-01-30T06:11:25;23.33;;;9.27;;
17595;SDS011;8916;47.086;15.920;2024-01-30T06:13:54;24.83;;;9.65;;
17595;SDS011;8916;47.086;15.920;2024-01-30T06:16:24;31.77;;;9.80;;
17595;SDS011;8916;47.086;15.920;2024-01-30T06:18:57;27.10;;;9.93;;
17595;SDS011;8916;47.086;15.920;2024-01-30T06:21:27;35.40;;;10.73;;
17595;SDS011;8916;47.086;15.920;2024-01-30T06:23:58;25.17;;;9.32;;
17595;SDS011;8916;47.086;15.920;2024-01-30T06:26:29;28.75;;;9.65;;
17595;SDS011;8916;47.086;15.920;2024-01-30T06:28:59;30.08;;;10.00;;
17595;SDS011;8916;47.086;15.920;2024-01-30T06:31:28;25.80;;;9.32;;
17595;SDS011;8916;47.086;15.920;2024-01-30T06:33:58;31.17;;;11.63;;
17595;SDS011;8916;47.086;15.920;2024-01-30T06:36:28;44.20;;;15.30;;
17595;SDS011;8916;47.086;15.920;2024-01-30T06:38:58;38.28;;;15.07;;
17595;SDS011;8916;47.086;15.920;2024-01-30T06:41:29;35.60;;;13.55;;
17595;SDS011;8916;47.086;15.920;2024-01-30T06:43:59;36.22;;;11.25;;
17595;SDS011;8916;47.086;15.920;2024-01-30T06:46:30;24.27;;;10.65;;
17595;SDS011;8916;47.086;15.920;2024-01-30T06:49:00;29.00;;;12.27;;
17595;SDS011;8916;47.086;15.920;2024-01-30T06:51:30;32.60;;;12.40;;
17595;SDS011;8916;47.086;15.920;2024-01-30T06:53:59;32.85;;;11.98;;
17595;SDS011;8916;47.086;15.920;2024-01-30T06:56:30;31.40;;;11.45;;
17595;SDS011;8916;47.086;15.920;2024-01-30T06:59:00;24.75;;;10.75;;
17595;SDS011;8916;47.086;15.920;2024-01-30T07:01:30;28.75;;;11.05;;
17595;SDS011;8916;47.086;15.920;2024-01-30T07:04:00;28.50;;;11.20;;
17595;SDS011;8916;47.086;15.920;2024-01-30T07:06:29;17.48;;;8.85;;
17595;SDS011;8916;47.086;15.920;2024-01-30T07:08:59;23.23;;;10.60;;
17595;SDS011;8916;47.086;15.920;2024-01-30T07:11:28;18.83;;;8.90;;
17595;SDS011;8916;47.086;15.920;2024-01-30T07:13:59;27.73;;;9.25;;
17595;SDS011;8916;47.086;15.920;2024-01-30T07:16:31;32.45;;;10.13;;
17595;SDS011;8916;47.086;15.920;2024-01-30T07:19:00;25.92;;;9.48;;
17595;SDS011;8916;47.086;15.920;2024-01-30T07:21:30;22.80;;;9.05;;
17595;SDS011;8916;47.086;15.920;2024-01-30T07:24:00;24.67;;;9.05;;
17595;SDS011;8916;47.086;15.920;2024-01-30T07:26:31;29.75;;;9.00;;
17595;SDS011;8916;47.086;15.920;2024-01-30T07:29:01;28.08;;;9.98;;
17595;SDS011;8916;47.086;15.920;2024-01-30T07:31:31;29.35;;;9.48;;
17595;SDS011;8916;47.086;15.920;2024-01-30T07:34:01;23.38;;;9.38;;
17595;SDS011;8916;47.086;15.920;2024-01-30T07:36:31;20.90;;;9.27;;
17595;SDS011;8916;47.086;15.920;2024-01-30T07:39:01;24.60;;;8.85;;
17595;SDS011;8916;47.086;15.920;2024-01-30T07:41:32;29.52;;;9.65;;
17595;SDS011;8916;47.086;15.920;2024-01-30T07:44:02;23.27;;;9.20;;
17595;SDS011;8916;47.086;15.920;2024-01-30T07:46:32;35.53;;;12.55;;
17595;SDS011;8916;47.086;15.920;2024-01-30T07:49:02;39.38;;;13.02;;
17595;SDS011;8916;47.086;15.920;2024-01-30T07:51:31;36.53;;;13.88;;
17595;SDS011;8916;47.086;15.920;2024-01-30T07:54:01;38.85;;;12.10;;
17595;SDS011;8916;47.086;15.920;2024-01-30T07:56:30;21.42;;;9.13;;
17595;SDS011;8916;47.086;15.920;2024-01-30T07:59:00;21.90;;;8.40;;
17595;SDS011;8916;47.086;15.920;2024-01-30T08:01:30;23.85;;;8.52;;
17595;SDS011;8916;47.086;15.920;2024-01-30T08:03:59;27.27;;;9.98;;
17595;SDS011;8916;47.086;15.920;2024-01-30T08:06:28;22.27;;;8.48;;
17595;SDS011;8916;47.086;15.920;2024-01-30T08:08:57;23.65;;;9.15;;
17595;SDS011;8916;47.086;15.920;2024-01-30T08:11:26;17.08;;;7.70;;
17595;SDS011;8916;47.086;15.920;2024-01-30T08:13:56;21.98;;;8.50;;
17595;SDS011;8916;47.086;15.920;2024-01-30T08:16:27;20.48;;;7.95;;
17595;SDS011;8916;47.086;15.920;2024-01-30T08:18:56;20.13;;;9.18;;
17595;SDS011;8916;47.086;15.920;2024-01-30T08:21:25;19.98;;;9.25;;
17595;SDS011;8916;47.086;15.920;2024-01-30T08:23:55;23.55;;;8.77;;
17595;SDS011;8916;47.086;15.920;2024-01-30T08:26:24;20.50;;;8.25;;
17595;SDS011;8916;47.086;15.920;2024-01-30T08:28:53;23.10;;;8.90;;
17595;SDS011;8916;47.086;15.920;2024-01-30T08:31:22;23.08;;;8.93;;
17595;SDS011;8916;47.086;15.920;2024-01-30T08:33:53;20.23;;;8.60;;
17595;SDS011;8916;47.086;15.920;2024-01-30T08:36:22;26.52;;;9.63;;
17595;SDS011;8916;47.086;15.920;2024-01-30T08:38:51;26.20;;;9.40;;
17595;SDS011;8916;47.086;15.920;2024-01-30T08:41:26;28.40;;;10.55;;
17595;SDS011;8916;47.086;15.920;2024-01-30T08:43:56;29.38;;;10.27;;
17595;SDS011;8916;47.086;15.920;2024-01-30T08:46:25;26.02;;;11.05;;
17595;SDS011;8916;47.086;15.920;2024-01-30T08:48:56;21.67;;;10.13;;
17595;SDS011;8916;47.086;15.920;2024-01-30T08:51:25;30.40;;;10.73;;
17595;SDS011;8916;47.086;15.920;2024-01-30T08:53:54;23.80;;;10.18;;
17595;SDS011;8916;47.086;15.920;2024-01-30T08:56:23;31.58;;;11.40;;
17595;SDS011;8916;47.086;15.920;2024-01-30T08:58:52;35.03;;;12.20;;
17595;SDS011;8916;47.086;15.920;2024-01-30T09:01:21;36.65;;;12.20;;
17595;SDS011;8916;47.086;15.920;2024-01-30T09:03:50;27.42;;;11.68;;
17595;SDS011;8916;47.086;15.920;2024-01-30T09:06:21;29.42;;;12.73;;
17595;SDS011;8916;47.086;15.920;2024-01-30T09:08:51;35.13;;;13.15;;
17595;SDS011;8916;47.086;15.920;2024-01-30T09:11:20;34.08;;;12.30;;
17595;SDS011;8916;47.086;15.920;2024-01-30T09:13:49;33.05;;;12.50;;
17595;SDS011;8916;47.086;15.920;2024-01-30T09:16:18;31.60;;;12.70;;
17595;SDS011;8916;47.086;15.920;2024-01-30T09:18:47;27.13;;;11.90;;
17595;SDS011;8916;47.086;15.920;2024-01-30T09:21:17;29.65;;;12.63;;
17595;SDS011;8916;47.086;15.920;2024-01-30T09:23:47;25.20;;;11.15;;
17595;SDS011;8916;47.086;15.920;2024-01-30T09:26:16;31.83;;;13.20;;
17595;SDS011;8916;47.086;15.920;2024-01-30T09:28:45;36.85;;;14.05;;
17595;SDS011;8916;47.086;15.920;2024-01-30T09:31:14;35.47;;;13.20;;
17595;SDS011;8916;47.086;15.920;2024-01-30T09:33:46;31.35;;;12.52;;
17595;SDS011;8916;47.086;15.920;2024-01-30T09:36:16;28.55;;;13.52;;
17595;SDS011;8916;47.086;15.920;2024-01-30T09:38:48;31.70;;;12.70;;
17595;SDS011;8916;47.086;15.920;2024-01-30T09:41:17;35.17;;;14.73;;
17595;SDS011;8916;47.086;15.920;2024-01-30T09:43:48;34.00;;;14.52;;
17595;SDS011;8916;47.086;15.920;2024-01-30T09:46:19;29.20;;;12.60;;
17595;SDS011;8916;47.086;15.920;2024-01-30T09:48:51;31.13;;;13.88;;
17595;SDS011;8916;47.086;15.920;2024-01-30T09:51:22;31.27;;;14.45;;
17595;SDS011;8916;47.086;15.920;2024-01-30T09:53:53;26.80;;;13.93;;
17595;SDS011;8916;47.086;15.920;2024-01-30T09:56:23;36.08;;;14.55;;
17595;SDS011;8916;47.086;15.920;2024-01-30T09:58:52;31.27;;;15.13;;
17595;SDS011;8916;47.086;15.920;2024-01-30T10:01:21;37.63;;;15.65;;
17595;SDS011;8916;47.086;15.920;2024-01-30T10:03:51;45.92;;;17.65;;
17595;SDS011;8916;47.086;15.920;2024-01-30T10:06:21;36.17;;;15.73;;
17595;SDS011;8916;47.086;15.920;2024-01-30T10:08:51;34.70;;;15.93;;
17595;SDS011;8916;47.086;15.920;2024-01-30T10:11:21;40.65;;;16.45;;
17595;SDS011;8916;47.086;15.920;2024-01-30T10:13:53;33.03;;;14.88;;
17595;SDS011;8916;47.086;15.920;2024-01-30T10:16:23;34.35;;;16.13;;
17595;SDS011;8916;47.086;15.920;2024-01-30T10:18:52;37.40;;;16.10;;
17595;SDS011;8916;47.086;15.920;2024-01-30T10:21:21;33.47;;;15.73;;
17595;SDS011;8916;47.086;15.920;2024-01-30T10:23:52;40.95;;;17.38;;
17595;SDS011;8916;47.086;15.920;2024-01-30T10:26:22;39.88;;;17.38;;
17595;SDS011;8916;47.086;15.920;2024-01-30T10:28:51;37.63;;;16.17;;
17595;SDS011;8916;47.086;15.920;2024-01-30T10:31:21;35.28;;;16.23;;
17595;SDS011;8916;47.086;15.920;2024-01-30T10:33:51;41.50;;;17.67;;
17595;SDS011;8916;47.086;15.920;2024-01-30T10:36:36;37.28;;;15.52;;
17595;SDS011;8916;47.086;15.920;2024-01-30T10:39:09;44.83;;;16.73;;
17595;SDS011;8916;47.086;15.920;2024-01-30T10:41:41;41.47;;;16.38;;
17595;SDS011;8916;47.086;15.920;2024-01-30T10:44:12;37.08;;;15.38;;
17595;SDS011;8916;47.086;15.920;2024-01-30T10:46:49;39.85;;;16.30;;
17595;SDS011;8916;47.086;15.920;2024-01-30T10:49:26;39.55;;;15.80;;
17595;SDS011;8916;47.086;15.920;2024-01-30T10:51:57;38.58;;;16.60;;
17595;SDS011;8916;47.086;15.920;2024-01-30T10:54:27;31.13;;;15.30;;
17595;SDS011;8916;47.086;15.920;2024-01-30T10:57:00;33.67;;;15.32;;
17595;SDS011;8916;47.086;15.920;2024-01-30T10:59:31;37.88;;;15.77;;
17595;SDS011;8916;47.086;15.920;2024-01-30T11:02:01;29.48;;;14.30;;
17595;SDS011;8916;47.086;15.920;2024-01-30T11:04:35;31.52;;;15.05;;
17595;SDS011;8916;47.086;15.920;2024-01-30T11:07:13;31.80;;;14.05;;
17595;SDS011;8916;47.086;15.920;2024-01-30T11:09:50;34.55;;;14.75;;
17595;SDS011;8916;47.086;15.920;2024-01-30T11:12:25;26.98;;;13.57;;
17595;SDS011;8916;47.086;15.920;2024-01-30T11:15:05;32.53;;;14.25;;
17595;SDS011;8916;47.086;15.920;2024-01-30T11:17:40;28.88;;;11.82;;
17595;SDS011;8916;47.086;15.920;2024-01-30T11:20:14;27.92;;;12.38;;
17595;SDS011;8916;47.086;15.920;2024-01-30T11:22:46;24.17;;;13.15;;
17595;SDS011;8916;47.086;15.920;2024-01-30T11:25:20;27.00;;;12.70;;
17595;SDS011;8916;47.086;15.920;2024-01-30T11:27:52;27.65;;;12.05;;
17595;SDS011;8916;47.086;15.920;2024-01-30T11:30:23;30.67;;;12.57;;
17595;SDS011;8916;47.086;15.920;2024-01-30T11:33:00;33.67;;;12.13;;
17595;SDS011;8916;47.086;15.920;2024-01-30T11:35:33;22.63;;;11.85;;
17595;SDS011;8916;47.086;15.920;2024-01-30T11:38:04;26.83;;;12.00;;
17595;SDS011;8916;47.086;15.920;2024-01-30T11:40:34;26.25;;;11.27;;
17595;SDS011;8916;47.086;15.920;2024-01-30T11:43:08;21.80;;;10.80;;
17595;SDS011;8916;47.086;15.920;2024-01-30T11:45:38;24.73;;;11.05;;
17595;SDS011;8916;47.086;15.920;2024-01-30T11:48:08;24.98;;;11.85;;
17595;SDS011;8916;47.086;15.920;2024-01-30T11:50:38;23.85;;;10.80;;
17595;SDS011;8916;47.086;15.920;2024-01-30T11:53:08;18.60;;;9.98;;
17595;SDS011;8916;47.086;15.920;2024-01-30T11:55:38;20.00;;;10.60;;
17595;SDS011;8916;47.086;15.920;2024-01-30T11:58:09;27.25;;;11.68;;
17595;SDS011;8916;47.086;15.920;2024-01-30T12:00:38;24.60;;;12.00;;
17595;SDS011;8916;47.086;15.920;2024-01-30T12:03:07;27.38;;;12.38;;
17595;SDS011;8916;47.086;15.920;2024-01-30T12:05:36;25.98;;;11.75;;
17595;SDS011;8916;47.086;15.920;2024-01-30T12:08:14;28.90;;;11.73;;
17595;SDS011;8916;47.086;15.920;2024-01-30T12:10:44;26.08;;;12.00;;
17595;SDS011;8916;47.086;15.920;2024-01-30T12:13:14;26.35;;;11.90;;
17595;SDS011;8916;47.086;15.920;2024-01-30T12:15:44;22.08;;;12.43;;
17595;SDS011;8916;47.086;15.920;2024-01-30T12:18:13;23.58;;;12.10;;
17595;SDS011;8916;47.086;15.920;2024-01-30T12:20:42;26.15;;;11.20;;
17595;SDS011;8916;47.086;15.920;2024-01-30T12:23:12;24.73;;;12.40;;
17595;SDS011;8916;47.086;15.920;2024-01-30T12:25:41;22.50;;;11.18;;
17595;SDS011;8916;47.086;15.920;2024-01-30T12:28:10;24.55;;;11.73;;
17595;SDS011;8916;47.086;15.920;2024-01-30T12:30:42;20.60;;;11.52;;
17595;SDS011;8916;47.086;15.920;2024-01-30T12:33:15;22.20;;;11.65;;
17595;SDS011;8916;47.086;15.920;2024-01-30T12:35:45;21.55;;;11.02;;
17595;SDS011;8916;47.086;15.920;2024-01-30T12:38:28;23.88;;;11.00;;
17595;SDS011;8916;47.086;15.920;2024-01-30T12:40:57;24.02;;;11.90;;
17595;SDS011;8916;47.086;15.920;2024-01-30T12:43:27;23.95;;;11.98;;
17595;SDS011;8916;47.086;15.920;2024-01-30T12:46:07;23.33;;;11.27;;
17595;SDS011;8916;47.086;15.920;2024-01-30T12:48:36;25.70;;;11.40;;
17595;SDS011;8916;47.086;15.920;2024-01-30T12:51:05;23.80;;;11.25;;
17595;SDS011;8916;47.086;15.920;2024-01-30T12:53:34;19.58;;;11.30;;
17595;SDS011;8916;47.086;15.920;2024-01-30T12:56:03;21.42;;;11.52;;
17595;SDS011;8916;47.086;15.920;2024-01-30T12:58:33;25.77;;;13.25;;
17595;SDS011;8916;47.086;15.920;2024-01-30T13:01:02;22.50;;;11.80;;
17595;SDS011;8916;47.086;15.920;2024-01-30T13:03:33;21.50;;;11.18;;
17595;SDS011;8916;47.086;15.920;2024-01-30T13:06:04;25.25;;;11.32;;
17595;SDS011;8916;47.086;15.920;2024-01-30T13:08:33;24.15;;;10.60;;
17595;SDS011;8916;47.086;15.920;2024-01-30T13:11:02;23.73;;;11.57;;
17595;SDS011;8916;47.086;15.920;2024-01-30T13:13:32;23.75;;;12.98;;
17595;SDS011;8916;47.086;15.920;2024-01-30T13:16:03;22.45;;;11.70;;
17595;SDS011;8916;47.086;15.920;2024-01-30T13:18:34;23.42;;;12.48;;
17595;SDS011;8916;47.086;15.920;2024-01-30T13:21:03;22.52;;;10.02;;
17595;SDS011;8916;47.086;15.920;2024-01-30T13:23:33;22.60;;;11.23;;
17595;SDS011;8916;47.086;15.920;2024-01-30T13:26:02;20.73;;;11.70;;
17595;SDS011;8916;47.086;15.920;2024-01-30T13:28:31;24.60;;;11.75;;
17595;SDS011;8916;47.086;15.920;2024-01-30T13:31:00;22.92;;;11.55;;
17595;SDS011;8916;47.086;15.920;2024-01-30T13:33:30;20.80;;;11.63;;
17595;SDS011;8916;47.086;15.920;2024-01-30T13:36:01;21.83;;;11.40;;
17595;SDS011;8916;47.086;15.920;2024-01-30T13:38:31;21.77;;;12.02;;
17595;SDS011;8916;47.086;15.920;2024-01-30T13:41:00;19.92;;;11.43;;
17595;SDS011;8916;47.086;15.920;2024-01-30T13:43:30;23.20;;;11.18;;
17595;SDS011;8916;47.086;15.920;2024-01-30T13:45:59;21.13;;;12.02;;
17595;SDS011;8916;47.086;15.920;2024-01-30T13:48:28;22.00;;;12.18;;
17595;SDS011;8916;47.086;15.920;2024-01-30T13:50:58;21.20;;;11.57;;
17595;SDS011;8916;47.086;15.920;2024-01-30T13:53:29;21.15;;;11.35;;
17595;SDS011;8916;47.086;15.920;2024-01-30T13:55:58;21.02;;;11.65;;
17595;SDS011;8916;47.086;15.920;2024-01-30T13:58:28;24.05;;;11.15;;
17595;SDS011;8916;47.086;15.920;2024-01-30T14:01:01;17.33;;;10.38;;
17595;SDS011;8916;47.086;15.920;2024-01-30T14:03:30;26.15;;;12.15;;
17595;SDS011;8916;47.086;15.920;2024-01-30T14:05:59;18.52;;;11.55;;
17595;SDS011;8916;47.086;15.920;2024-01-30T14:08:31;20.63;;;11.55;;
17595;SDS011;8916;47.086;15.920;2024-01-30T14:11:00;18.95;;;11.95;;
17595;SDS011;8916;47.086;15.920;2024-01-30T14:13:30;20.92;;;11.77;;
17595;SDS011;8916;47.086;15.920;2024-01-30T14:16:00;18.77;;;12.02;;
17595;SDS011;8916;47.086;15.920;2024-01-30T14:18:32;18.98;;;12.23;;
17595;SDS011;8916;47.086;15.920;2024-01-30T14:21:01;20.60;;;12.30;;
17595;SDS011;8916;47.086;15.920;2024-01-30T14:23:31;18.38;;;11.48;;
17595;SDS011;8916;47.086;15.920;2024-01-30T14:26:01;25.20;;;12.55;;
17595;SDS011;8916;47.086;15.920;2024-01-30T14:28:30;21.90;;;13.00;;
17595;SDS011;8916;47.086;15.920;2024-01-30T14:31:00;25.27;;;13.57;;
17595;SDS011;8916;47.086;15.920;2024-01-30T14:33:29;22.25;;;13.18;;
17595;SDS011;8916;47.086;15.920;2024-01-30T14:35:58;25.08;;;13.60;;
17595;SDS011;8916;47.086;15.920;2024-01-30T14:38:27;23.45;;;14.18;;
17595;SDS011;8916;47.086;15.920;2024-01-30T14:40:58;23.00;;;14.43;;
17595;SDS011;8916;47.086;15.920;2024-01-30T14:43:27;28.15;;;14.73;;
17595;SDS011;8916;47.086;15.920;2024-01-30T14:45:56;22.23;;;13.85;;
17595;SDS011;8916;47.086;15.920;2024-01-30T14:48:25;26.50;;;14.10;;